createdAt,value
2019-03-26T00:02:29.415Z,101534.17
2019-03-26T00:07:32.517Z,101531.12
2019-03-26T00:12:35.286Z,101540.85
2019-03-26T00:17:38.193Z,101535.15
2019-03-26T00:22:40.935Z,101549.27
2019-03-26T00:27:43.672Z,101552.39
2019-03-26T00:32:46.558Z,101557.74
2019-03-26T00:37:49.185Z,101554.69
2019-03-26T00:42:51.903Z,101551.69
2019-03-26T00:47:54.517Z,101553.01
2019-03-26T00:52:57.292Z,101561.00
2019-03-26T00:58:01.702Z,101568.98
2019-03-26T01:03:05.474Z,101570.33
2019-03-26T01:08:08.384Z,101568.98
2019-03-26T01:13:11.211Z,101576.55
2019-03-26T01:18:13.890Z,101575.77
2019-03-26T01:23:16.717Z,101574.90
2019-03-26T01:28:19.426Z,101581.08
2019-03-26T01:33:22.371Z,101578.52
2019-03-26T01:38:25.018Z,101582.55
2019-03-26T01:43:28.088Z,101585.18
2019-03-26T01:48:30.761Z,101596.67
2019-03-26T01:53:33.388Z,101598.48
2019-03-26T01:58:36.075Z,101610.40
2019-03-26T02:03:38.821Z,101602.98
2019-03-26T02:08:41.445Z,101606.59
2019-03-26T02:13:44.394Z,101605.22
2019-03-26T02:18:47.074Z,101614.14
2019-03-26T02:23:49.808Z,101622.55
2019-03-26T02:28:52.782Z,101635.77
2019-03-26T02:33:55.762Z,101627.02
2019-03-26T02:38:58.404Z,101642.03
2019-03-26T02:44:01.093Z,101646.54
2019-03-26T02:49:03.773Z,101649.60
2019-03-26T02:54:06.405Z,101645.69
2019-03-26T02:59:09.025Z,101640.92
2019-03-26T03:04:11.672Z,101651.98
2019-03-26T03:09:14.265Z,101649.39
2019-03-26T03:14:16.979Z,101653.36
2019-03-26T03:19:19.733Z,101668.34
2019-03-26T03:24:22.394Z,101668.34
2019-03-26T03:29:25.070Z,101656.97
2019-03-26T03:34:27.926Z,101673.25
2019-03-26T03:39:30.729Z,101682.05
2019-03-26T03:44:33.654Z,101692.20
2019-03-26T03:49:36.595Z,101680.77
2019-03-26T03:54:41.553Z,101677.75
2019-03-26T03:59:45.440Z,101676.44
2019-03-26T04:04:48.168Z,101693.14
2019-03-26T04:09:50.845Z,101698.45
2019-03-26T04:14:53.525Z,101705.47
2019-03-26T04:19:56.202Z,101709.84
2019-03-26T04:24:58.880Z,101713.44
2019-03-26T04:30:01.874Z,101713.86
2019-03-26T04:35:04.884Z,101719.59
2019-03-26T04:40:07.798Z,101721.43
2019-03-26T04:45:10.546Z,101735.39
2019-03-26T04:50:13.287Z,101738.02
2019-03-26T04:55:16.134Z,101731.00
2019-03-26T05:00:19.068Z,101737.63
2019-03-26T05:05:21.804Z,101732.88
2019-03-26T05:10:24.462Z,101736.31
2019-03-26T05:15:27.156Z,101738.96
2019-03-26T05:20:29.955Z,101747.73
2019-03-26T05:25:32.657Z,101744.66
2019-03-26T05:30:35.308Z,101743.79
2019-03-26T05:35:38.210Z,101741.13
2019-03-26T05:40:40.846Z,101741.10
2019-03-26T05:45:43.713Z,101750.33
2019-03-26T05:50:46.384Z,101743.70
2019-03-26T05:55:49.458Z,101752.01
2019-03-26T06:00:52.155Z,101754.59
2019-03-26T06:05:55.096Z,101761.22
2019-03-26T06:10:57.774Z,101761.64
2019-03-26T06:16:00.400Z,101767.65
2019-03-26T06:21:03.340Z,101769.89
2019-03-26T06:26:06.182Z,101773.75
2019-03-26T06:31:08.904Z,101780.72
2019-03-26T06:36:11.778Z,101770.11
2019-03-26T06:41:14.462Z,101772.28
2019-03-26T06:46:17.160Z,101765.66
2019-03-26T06:51:20.140Z,101764.76
2019-03-26T06:56:22.968Z,101773.95
2019-03-26T07:01:25.969Z,101768.59
2019-03-26T07:06:28.631Z,101784.83
2019-03-26T07:11:31.293Z,101760.72
2019-03-26T07:16:34.162Z,101792.94
2019-03-26T07:21:49.075Z,101821.45
2019-03-26T07:26:41.646Z,101817.90
2019-03-26T07:31:44.430Z,101806.59
2019-03-26T07:36:47.286Z,101807.42
2019-03-26T07:41:50.310Z,101808.67
2019-03-26T07:46:53.052Z,101842.75
2019-03-26T07:51:55.619Z,101815.94
2019-03-26T07:56:58.258Z,101847.83
2019-03-26T08:02:01.001Z,101846.14
2019-03-26T08:07:03.638Z,101835.05
2019-03-26T08:12:06.507Z,101839.95
2019-03-26T08:17:09.046Z,101839.70
2019-03-26T08:22:13.068Z,101844.21
2019-03-26T08:27:15.676Z,101853.09
2019-03-26T08:32:18.278Z,101830.94
2019-03-26T08:37:20.890Z,101848.50
2019-03-26T08:42:23.770Z,101840.17
2019-03-26T08:47:26.382Z,101848.25
2019-03-26T08:52:28.977Z,101871.69
2019-03-26T08:57:31.659Z,101864.65
2019-03-26T09:02:34.246Z,101880.63
2019-03-26T09:07:36.889Z,101882.60
2019-03-26T09:12:39.916Z,101880.83
2019-03-26T09:17:44.407Z,101886.54
2019-03-26T09:22:47.183Z,101894.13
2019-03-26T09:27:52.361Z,101890.98
2019-03-26T09:32:54.317Z,101898.05
2019-03-26T09:37:57.003Z,101908.23
2019-03-26T09:42:59.702Z,101920.89
2019-03-26T09:48:02.304Z,101921.92
2019-03-26T09:53:04.908Z,101907.01
2019-03-26T09:58:07.489Z,101917.95
2019-03-26T10:03:10.138Z,101907.67
2019-03-26T10:08:12.812Z,101909.45
2019-03-26T10:13:15.494Z,101898.05
2019-03-26T10:18:18.118Z,101902.03
2019-03-26T10:23:20.876Z,101904.85
2019-03-26T10:28:23.849Z,101897.82
2019-03-26T10:33:26.494Z,101896.72
2019-03-26T10:38:29.101Z,101926.70
2019-03-26T10:43:31.842Z,101880.28
2019-03-26T10:48:34.426Z,101867.16
2019-03-26T10:53:37.253Z,101873.89
2019-03-26T10:58:39.910Z,101874.14
2019-03-26T11:03:42.903Z,101862.72
2019-03-26T11:08:45.536Z,101855.33
2019-03-26T11:13:48.104Z,101839.34
2019-03-26T11:18:50.748Z,101833.25
2019-03-26T11:23:53.462Z,101821.92
2019-03-26T11:28:56.025Z,101825.48
2019-03-26T11:33:58.884Z,101852.75
2019-03-26T11:39:01.867Z,101856.31
2019-03-26T11:44:04.982Z,101856.45
2019-03-26T11:49:07.906Z,101850.61
2019-03-26T11:54:10.538Z,101822.88
2019-03-26T11:59:13.198Z,101824.30
2019-03-26T12:04:15.963Z,101819.86
2019-03-26T12:09:19.160Z,101806.78
2019-03-26T12:14:21.962Z,101814.38
2019-03-26T12:19:24.581Z,101815.28
2019-03-26T12:24:27.232Z,101801.34
2019-03-26T12:29:29.827Z,101824.70
2019-03-26T12:34:38.559Z,101800.97
2019-03-26T12:39:44.078Z,101792.30
2019-03-26T12:44:46.038Z,101788.63
2019-03-26T12:49:48.640Z,101797.84
2019-03-26T12:54:53.548Z,101793.16
2019-03-26T12:59:56.313Z,101784.39
2019-03-26T13:04:59.113Z,101788.58
2019-03-26T13:10:13.318Z,101792.31
2019-03-26T13:15:08.385Z,101784.34
2019-03-26T13:20:12.004Z,101776.36
2019-03-26T13:25:14.702Z,101774.20
2019-03-26T13:30:17.708Z,101776.98
2019-03-26T13:35:20.700Z,101765.87
2019-03-26T13:40:27.583Z,101763.38
2019-03-26T13:45:27.852Z,101753.28
2019-03-26T13:50:30.490Z,101749.63
2019-03-26T13:55:33.065Z,101749.63
2019-03-26T14:00:37.434Z,101769.80
2019-03-26T14:05:39.997Z,101769.80
2019-03-26T14:10:42.618Z,101739.84
2019-03-26T14:15:45.472Z,101730.50
2019-03-26T14:20:48.137Z,101728.05
2019-03-26T14:25:50.851Z,101721.10
2019-03-26T14:30:53.643Z,101731.41
2019-03-26T14:35:56.346Z,101729.11
2019-03-26T14:40:58.955Z,101734.48
2019-03-26T14:46:01.621Z,101734.48
2019-03-26T14:51:04.262Z,101737.84
2019-03-26T14:56:06.869Z,101735.59
2019-03-26T15:01:09.613Z,101735.59
2019-03-26T15:06:12.229Z,101734.97
2019-03-26T15:11:14.777Z,101731.59
2019-03-26T15:16:17.403Z,101737.30
2019-03-26T15:21:19.989Z,101726.17
2019-03-26T15:26:22.878Z,101726.17
2019-03-26T15:31:25.441Z,101726.50
2019-03-26T15:36:28.107Z,101731.48
2019-03-26T15:41:30.789Z,101730.86
2019-03-26T15:46:36.270Z,101730.45
2019-03-26T15:51:37.907Z,101724.74
2019-03-26T15:56:40.514Z,101720.78
2019-03-26T16:01:43.281Z,101715.27
2019-03-26T16:06:45.828Z,101726.79
2019-03-26T16:11:48.461Z,101726.79
2019-03-26T16:16:51.290Z,101713.66
2019-03-26T16:21:54.139Z,101724.80
2019-03-26T16:26:56.739Z,101720.18
2019-03-26T16:31:59.386Z,101721.96
2019-03-26T16:37:02.001Z,101725.09
2019-03-26T16:42:04.715Z,101735.31
2019-03-26T16:47:09.933Z,101722.77
2019-03-26T16:52:12.809Z,101718.27
2019-03-26T16:57:15.395Z,101727.02
2019-03-26T17:02:18.295Z,101731.98
2019-03-26T17:07:20.982Z,101733.36
2019-03-26T17:12:23.678Z,101732.63
2019-03-26T17:17:26.275Z,101731.36
2019-03-26T17:22:29.139Z,101736.20
2019-03-26T17:27:31.767Z,101741.67
2019-03-26T17:32:34.388Z,101744.33
2019-03-26T17:37:36.997Z,101741.72
2019-03-26T17:42:39.602Z,101755.92
2019-03-26T17:47:42.215Z,101755.49
2019-03-26T17:52:45.854Z,101761.69
2019-03-26T17:57:48.465Z,101762.70
2019-03-26T18:02:51.048Z,101770.85
2019-03-26T18:07:54.821Z,101757.33
2019-03-26T18:12:57.416Z,101774.17
2019-03-26T18:18:00.021Z,101769.77
2019-03-26T18:23:02.616Z,101779.98
2019-03-26T18:28:05.424Z,101776.91
2019-03-26T18:33:08.134Z,101781.03
2019-03-26T18:38:14.745Z,101770.42
2019-03-26T18:43:16.396Z,101778.83
2019-03-26T18:48:19.348Z,101777.60
2019-03-26T18:53:22.029Z,101779.34
2019-03-26T18:58:24.716Z,101786.58
2019-03-26T19:03:27.663Z,101789.68
2019-03-26T19:08:30.494Z,101794.61
2019-03-26T19:13:33.129Z,101799.97
2019-03-26T19:18:35.829Z,101802.66
2019-03-26T19:23:38.507Z,101803.17
2019-03-26T19:28:41.179Z,101808.47
2019-03-26T19:33:43.856Z,101807.59
2019-03-26T19:38:46.421Z,101797.03
2019-03-26T19:43:49.251Z,101811.58
2019-03-26T19:48:51.891Z,101805.03
2019-03-26T19:53:54.531Z,101812.58
2019-03-26T19:58:57.136Z,101809.52
2019-03-26T20:03:59.820Z,101845.02
2019-03-26T20:09:04.050Z,101807.91
2019-03-26T20:14:06.649Z,101823.35
2019-03-26T20:19:09.734Z,101826.91
2019-03-26T20:24:12.443Z,101832.17
2019-03-26T20:29:16.053Z,101866.69
2019-03-26T20:34:18.690Z,101841.42
2019-03-26T20:39:21.608Z,101853.34
2019-03-26T20:44:24.449Z,101850.03
2019-03-26T20:49:27.097Z,101854.83
2019-03-26T20:54:29.772Z,101855.74
2019-03-26T20:59:32.700Z,101859.30
2019-03-26T21:04:35.357Z,101855.78
2019-03-26T21:09:38.052Z,101848.28
2019-03-26T21:14:40.955Z,101850.97
2019-03-26T21:19:43.658Z,101843.81
2019-03-26T21:24:46.603Z,101835.86
2019-03-26T21:29:49.589Z,101832.34
2019-03-26T21:34:56.416Z,101831.42
2019-03-26T21:40:06.139Z,101841.95
2019-03-26T21:45:09.515Z,101831.39
2019-03-26T21:50:12.772Z,101833.59
2019-03-26T21:55:15.556Z,101827.00
2019-03-26T22:00:18.558Z,101829.61
2019-03-26T22:05:21.291Z,101823.94
2019-03-26T22:10:24.160Z,101827.08
2019-03-26T22:15:27.981Z,101819.17
2019-03-26T22:20:30.557Z,101838.59
2019-03-26T22:25:33.186Z,101848.75
2019-03-26T22:30:41.632Z,101852.30
2019-03-26T22:35:44.402Z,101862.45
2019-03-26T22:40:47.032Z,101855.45
2019-03-26T22:45:49.641Z,101864.27
2019-03-26T22:50:52.286Z,101852.45
2019-03-26T22:55:55.398Z,101866.09
2019-03-26T23:00:58.012Z,101874.05
2019-03-26T23:06:01.044Z,101878.96
2019-03-26T23:11:03.851Z,101893.47
2019-03-26T23:16:06.616Z,101881.62
2019-03-26T23:21:09.288Z,101889.53
2019-03-26T23:26:11.851Z,101902.78
2019-03-26T23:31:14.750Z,101919.21
2019-03-26T23:36:17.479Z,101894.97
2019-03-26T23:41:20.165Z,101893.16
2019-03-26T23:46:22.941Z,101887.45
2019-03-26T23:51:25.546Z,101889.30
2019-03-26T23:56:29.162Z,101901.81
